Time,TemperatureF,DewpointF,PressureIn,WindDirection,WindDirectionDegrees,WindSpeedMPH,WindSpeedGustMPH,Humidity,HourlyPrecipIn,Conditions,Clouds,dailyrainin,SoftwareType,DateUTC
2013-03-27 00:02:00,49.0,-99.9,29.99,ESE,114,1.0,2.0,-999,-99.99,,,-99.99,,2013-03-27 07:02:00,
2013-03-27 00:12:00,49.0,-99.9,29.98,SE,124,-999.0,1.0,-999,-99.99,,,-99.99,,2013-03-27 07:12:00,
2013-03-27 00:22:00,48.0,-99.9,29.98,SE,126,1.0,3.0,-999,-99.99,,,-99.99,,2013-03-27 07:22:00,
2013-03-27 00:32:00,48.0,-99.9,29.98,SE,124,1.0,3.0,-999,-99.99,,,-99.99,,2013-03-27 07:32:00,
2013-03-27 00:43:00,48.0,-99.9,29.98,SE,137,2.0,2.0,-999,-99.99,,,-99.99,,2013-03-27 07:43:00,
2013-03-27 00:54:00,48.0,-99.9,29.98,ESE,118,2.0,2.0,-999,-99.99,,,-99.99,,2013-03-27 07:54:00,
2013-03-27 01:02:00,48.0,-99.9,29.98,SE,133,3.0,4.0,-999,-99.99,,,-99.99,,2013-03-27 08:02:00,
2013-03-27 01:13:00,47.0,-99.9,29.98,ESE,108,1.0,2.0,-999,-99.99,,,-99.99,,2013-03-27 08:13:00,
2013-03-27 01:22:00,48.0,-99.9,29.98,East,101,-999.0,2.0,-999,-99.99,,,-99.99,,2013-03-27 08:22:00,
2013-03-27 01:32:00,48.0,-99.9,29.98,ESE,123,2.0,2.0,-999,-99.99,,,-99.99,,2013-03-27 08:32:00,
2013-03-27 01:43:00,47.0,-99.9,29.98,SE,125,1.0,2.0,-999,-99.99,,,-99.99,,2013-03-27 08:43:00,
2013-03-27 01:52:00,47.0,-99.9,29.98,ESE,104,0.0,2.0,-999,-99.99,,,-99.99,,2013-03-27 08:52:00,
2013-03-27 02:02:00,48.0,-99.9,29.97,North,-999,-999.0,-999.0,-999,-99.99,,,-99.99,,2013-03-27 09:02:00,
2013-03-27 02:12:00,47.0,-99.9,29.97,North,-999,-999.0,-999.0,-999,-99.99,,,-99.99,,2013-03-27 09:12:00,
2013-03-27 02:22:00,47.0,-99.9,29.97,North,-999,-999.0,-999.0,-999,-99.99,,,-99.99,,2013-03-27 09:22:00,
2013-03-27 02:33:00,47.0,-99.9,29.97,South,170,0.0,1.0,-999,-99.99,,,-99.99,,2013-03-27 09:33:00,
2013-03-27 02:42:00,47.0,-99.9,29.97,ESE,121,2.0,2.0,-999,-99.99,,,-99.99,,2013-03-27 09:42:00,
2013-03-27 02:52:00,47.0,-99.9,29.96,ESE,113,2.0,3.0,-999,-99.99,,,-99.99,,2013-03-27 09:52:00,
2013-03-27 03:03:00,47.0,-99.9,29.96,East,83,-999.0,2.0,-999,-99.99,,,-99.99,,2013-03-27 10:03:00,
2013-03-27 03:13:00,47.0,-99.9,29.96,ESE,120,-999.0,2.0,-999,-99.99,,,-99.99,,2013-03-27 10:13:00,
2013-03-27 03:23:00,47.0,-99.9,29.96,ESE,123,1.0,1.0,-999,-99.99,,,-99.99,,2013-03-27 10:23:00,
2013-03-27 03:32:00,47.0,-99.9,29.96,ESE,114,2.0,2.0,-999,-99.99,,,-99.99,,2013-03-27 10:32:00,
2013-03-27 03:42:00,47.0,-99.9,29.96,ESE,119,2.0,2.0,-999,-99.99,,,-99.99,,2013-03-27 10:42:00,
2013-03-27 03:53:00,47.0,-99.9,29.95,ESE,108,1.0,2.0,-999,-99.99,,,-99.99,,2013-03-27 10:53:00,
2013-03-27 04:03:00,47.0,-99.9,29.95,East,91,1.0,2.0,-999,-99.99,,,-99.99,,2013-03-27 11:03:00,
2013-03-27 04:12:00,47.0,-99.9,29.95,ESE,103,-999.0,1.0,-999,-99.99,,,-99.99,,2013-03-27 11:12:00,
2013-03-27 04:22:00,47.0,-99.9,29.95,SE,125,2.0,3.0,-999,-99.99,,,-99.99,,2013-03-27 11:22:00,
2013-03-27 04:32:00,47.0,-99.9,29.95,ESE,121,2.0,3.0,-999,-99.99,,,-99.99,,2013-03-27 11:32:00,
2013-03-27 04:43:00,47.0,-99.9,29.95,ESE,117,2.0,3.0,-999,-99.99,,,-99.99,,2013-03-27 11:43:00,
2013-03-27 04:53:00,47.0,-99.9,29.95,ESE,119,0.0,1.0,-999,-99.99,,,-99.99,,2013-03-27 11:53:00,
2013-03-27 05:02:00,47.0,-99.9,29.95,North,-999,-999.0,-999.0,-999,-99.99,,,-99.99,,2013-03-27 12:02:00,
2013-03-27 05:12:00,47.0,-99.9,29.95,North,-999,-999.0,-999.0,-999,-99.99,,,-99.99,,2013-03-27 12:12:00,
2013-03-27 05:23:00,46.0,-99.9,29.95,East,101,1.0,2.0,-999,-99.99,,,-99.99,,2013-03-27 12:23:00,
2013-03-27 05:32:00,47.0,-99.9,29.95,ESE,119,1.0,3.0,-999,-99.99,,,-99.99,,2013-03-27 12:32:00,
2013-03-27 05:44:00,46.0,-99.9,29.95,ESE,122,1.0,3.0,-999,-99.99,,,-99.99,,2013-03-27 12:44:00,
2013-03-27 05:52:00,47.0,-99.9,29.95,ESE,112,3.0,4.0,-999,-99.99,,,-99.99,,2013-03-27 12:52:00,
2013-03-27 06:02:00,47.0,-99.9,29.95,East,95,2.0,3.0,-999,-99.99,,,-99.99,,2013-03-27 13:02:00,
2013-03-27 06:12:00,47.0,-99.9,29.95,ESE,120,1.0,2.0,-999,-99.99,,,-99.99,,2013-03-27 13:12:00,
2013-03-27 06:23:00,46.0,-99.9,29.95,SE,126,1.0,3.0,-999,-99.99,,,-99.99,,2013-03-27 13:23:00,
2013-03-27 06:33:00,46.0,-99.9,29.95,SE,142,2.0,3.0,-999,-99.99,,,-99.99,,2013-03-27 13:33:00,
2013-03-27 06:42:00,46.0,-99.9,29.95,East,97,2.0,2.0,-999,-99.99,,,-99.99,,2013-03-27 13:42:00,
2013-03-27 06:53:00,47.0,-99.9,29.95,ESE,111,3.0,4.0,-999,-99.99,,,-99.99,,2013-03-27 13:53:00,
2013-03-27 07:02:00,46.0,-99.9,29.95,ESE,104,2.0,4.0,-999,-99.99,,,-99.99,,2013-03-27 14:02:00,
2013-03-27 07:12:00,46.0,-99.9,29.95,ESE,109,2.0,2.0,-999,-99.99,,,-99.99,,2013-03-27 14:12:00,
2013-03-27 07:22:00,46.0,-99.9,29.95,East,89,2.0,4.0,-999,-99.99,,,-99.99,,2013-03-27 14:22:00,
2013-03-27 07:32:00,46.0,-99.9,29.95,East,97,3.0,4.0,-999,-99.99,,,-99.99,,2013-03-27 14:32:00,
2013-03-27 07:42:00,46.0,-99.9,29.95,ESE,105,1.0,3.0,-999,-99.99,,,-99.99,,2013-03-27 14:42:00,
2013-03-27 07:52:00,46.0,-99.9,29.95,ESE,116,2.0,3.0,-999,-99.99,,,-99.99,,2013-03-27 14:52:00,
2013-03-27 08:03:00,46.0,-99.9,29.95,SE,139,2.0,3.0,-999,-99.99,,,-99.99,,2013-03-27 15:03:00,
2013-03-27 08:12:00,46.0,-99.9,29.95,SE,146,2.0,3.0,-999,-99.99,,,-99.99,,2013-03-27 15:12:00,
2013-03-27 08:23:00,46.0,-99.9,29.95,North,-999,-999.0,-999.0,-999,-99.99,,,-99.99,,2013-03-27 15:23:00,
2013-03-27 08:33:00,46.0,-99.9,29.95,North,-999,-999.0,-999.0,-999,-99.99,,,-99.99,,2013-03-27 15:33:00,
2013-03-27 08:43:00,47.0,-99.9,29.95,North,-999,-999.0,-999.0,-999,-99.99,,,-99.99,,2013-03-27 15:43:00,
2013-03-27 08:53:00,47.0,-99.9,29.96,ESE,109,-999.0,1.0,-999,-99.99,,,-99.99,,2013-03-27 15:53:00,
2013-03-27 09:03:00,47.0,-99.9,29.95,SE,138,1.0,1.0,-999,-99.99,,,-99.99,,2013-03-27 16:03:00,
2013-03-27 09:13:00,48.0,-99.9,29.95,SE,126,0.0,2.0,-999,-99.99,,,-99.99,,2013-03-27 16:13:00,
2013-03-27 09:23:00,48.0,-99.9,29.95,ESE,122,1.0,2.0,-999,-99.99,,,-99.99,,2013-03-27 16:23:00,
2013-03-27 09:33:00,47.0,-99.9,29.95,SE,124,2.0,3.0,-999,-99.99,,,-99.99,,2013-03-27 16:33:00,
2013-03-27 09:42:00,47.0,-99.9,29.96,SE,145,2.0,3.0,-999,-99.99,,,-99.99,,2013-03-27 16:42:00,
2013-03-27 09:52:00,47.0,-99.9,29.96,SSE,154,2.0,2.0,-999,-99.99,,,-99.99,,2013-03-27 16:52:00,
2013-03-27 10:03:00,48.0,-99.9,29.96,SE,133,1.0,2.0,-999,-99.99,,,-99.99,,2013-03-27 17:03:00,
2013-03-27 10:12:00,49.0,-99.9,29.96,SE,138,1.0,2.0,-999,-99.99,,,-99.99,,2013-03-27 17:12:00,
2013-03-27 10:22:00,48.0,-99.9,29.96,SE,146,4.0,5.0,-999,-99.99,,,-99.99,,2013-03-27 17:22:00,
2013-03-27 10:33:00,50.0,-99.9,29.96,SE,125,2.0,4.0,-999,-99.99,,,-99.99,,2013-03-27 17:33:00,
2013-03-27 10:44:00,50.0,-99.9,29.96,SE,145,3.0,3.0,-999,-99.99,,,-99.99,,2013-03-27 17:44:00,
2013-03-27 10:52:00,50.0,-99.9,29.96,SE,145,4.0,5.0,-999,-99.99,,,-99.99,,2013-03-27 17:52:00,
2013-03-27 11:03:00,50.0,-99.9,29.96,SE,137,4.0,6.0,-999,-99.99,,,-99.99,,2013-03-27 18:03:00,
2013-03-27 11:12:00,51.0,-99.9,29.96,ESE,106,3.0,5.0,-999,-99.99,,,-99.99,,2013-03-27 18:12:00,
2013-03-27 11:23:00,51.0,-99.9,29.96,SE,133,6.0,7.0,-999,-99.99,,,-99.99,,2013-03-27 18:23:00,
2013-03-27 11:33:00,51.0,-99.9,29.96,SE,132,5.0,7.0,-999,-99.99,,,-99.99,,2013-03-27 18:33:00,
2013-03-27 11:42:00,51.0,-99.9,29.96,SE,126,6.0,9.0,-999,-99.99,,,-99.99,,2013-03-27 18:42:00,
2013-03-27 11:53:00,52.0,-99.9,29.96,SE,125,6.0,8.0,-999,-99.99,,,-99.99,,2013-03-27 18:53:00,
2013-03-27 12:03:00,52.0,-99.9,29.96,ESE,121,5.0,8.0,-999,-99.99,,,-99.99,,2013-03-27 19:03:00,
2013-03-27 12:12:00,53.0,-99.9,29.95,ESE,115,3.0,6.0,-999,-99.99,,,-99.99,,2013-03-27 19:12:00,
2013-03-27 12:22:00,55.0,-99.9,29.95,ENE,77,0.0,9.0,-999,-99.99,,,-99.99,,2013-03-27 19:22:00,
2013-03-27 12:32:00,55.0,-99.9,29.95,SW,215,1.0,5.0,-999,-99.99,,,-99.99,,2013-03-27 19:32:00,
2013-03-27 12:42:00,55.0,-99.9,29.95,WSW,247,1.0,5.0,-999,-99.99,,,-99.99,,2013-03-27 19:42:00,
2013-03-27 12:52:00,56.0,-99.9,29.94,ESE,108,5.0,7.0,-999,-99.99,,,-99.99,,2013-03-27 19:52:00,
2013-03-27 13:03:00,56.0,-99.9,29.94,ESE,109,6.0,9.0,-999,-99.99,,,-99.99,,2013-03-27 20:03:00,
2013-03-27 13:12:00,56.0,-99.9,29.94,ESE,123,6.0,10.0,-999,-99.99,,,-99.99,,2013-03-27 20:12:00,
2013-03-27 13:22:00,57.0,-99.9,29.94,ESE,115,7.0,11.0,-999,-99.99,,,-99.99,,2013-03-27 20:22:00,
2013-03-27 13:32:00,57.0,-99.9,29.94,ESE,116,10.0,12.0,-999,-99.99,,,-99.99,,2013-03-27 20:32:00,
2013-03-27 13:43:00,57.0,-99.9,29.94,ESE,119,7.0,12.0,-999,-99.99,,,-99.99,,2013-03-27 20:43:00,
2013-03-27 13:52:00,58.0,-99.9,29.94,East,100,9.0,12.0,-999,-99.99,,,-99.99,,2013-03-27 20:52:00,
2013-03-27 14:02:00,58.0,-99.9,29.94,ESE,102,10.0,11.0,-999,-99.99,,,-99.99,,2013-03-27 21:02:00,
2013-03-27 14:12:00,58.0,-99.9,29.94,ESE,106,7.0,11.0,-999,-99.99,,,-99.99,,2013-03-27 21:12:00,
2013-03-27 14:23:00,58.0,-99.9,29.94,ESE,104,7.0,10.0,-999,-99.99,,,-99.99,,2013-03-27 21:23:00,
2013-03-27 14:33:00,58.0,-99.9,29.93,ESE,105,7.0,11.0,-999,-99.99,,,-99.99,,2013-03-27 21:33:00,
2013-03-27 14:44:00,58.0,-99.9,29.93,ESE,108,7.0,11.0,-999,-99.99,,,-99.99,,2013-03-27 21:44:00,
2013-03-27 14:52:00,58.0,-99.9,29.93,ESE,109,8.0,11.0,-999,-99.99,,,-99.99,,2013-03-27 21:52:00,
2013-03-27 15:03:00,58.0,-99.9,29.93,ESE,102,9.0,11.0,-999,-99.99,,,-99.99,,2013-03-27 22:03:00,
2013-03-27 15:12:00,59.0,-99.9,29.93,ESE,123,7.0,10.0,-999,-99.99,,,-99.99,,2013-03-27 22:12:00,
2013-03-27 15:23:00,61.0,-99.9,29.93,East,89,6.0,10.0,-999,-99.99,,,-99.99,,2013-03-27 22:23:00,
2013-03-27 15:33:00,60.0,-99.9,29.92,ESE,114,6.0,12.0,-999,-99.99,,,-99.99,,2013-03-27 22:33:00,
2013-03-27 15:43:00,61.0,-99.9,29.92,ESE,111,7.0,11.0,-999,-99.99,,,-99.99,,2013-03-27 22:43:00,
2013-03-27 15:53:00,60.0,-99.9,29.92,ESE,109,5.0,10.0,-999,-99.99,,,-99.99,,2013-03-27 22:53:00,
2013-03-27 16:03:00,60.0,-99.9,29.92,SE,127,6.0,8.0,-999,-99.99,,,-99.99,,2013-03-27 23:03:00,
2013-03-27 16:12:00,61.0,-99.9,29.91,ESE,110,4.0,7.0,-999,-99.99,,,-99.99,,2013-03-27 23:12:00,
2013-03-27 16:22:00,61.0,-99.9,29.92,SE,135,4.0,5.0,-999,-99.99,,,-99.99,,2013-03-27 23:22:00,
2013-03-27 16:32:00,61.0,-99.9,29.91,SE,131,4.0,5.0,-999,-99.99,,,-99.99,,2013-03-27 23:32:00,
2013-03-27 16:43:00,61.0,-99.9,29.91,ESE,115,1.0,4.0,-999,-99.99,,,-99.99,,2013-03-27 23:43:00,
2013-03-27 16:52:00,61.0,-99.9,29.91,SSE,158,3.0,4.0,-999,-99.99,,,-99.99,,2013-03-27 23:52:00,
2013-03-27 17:02:00,61.0,-99.9,29.91,SSE,165,4.0,5.0,-999,-99.99,,,-99.99,,2013-03-28 00:02:00,
2013-03-27 17:12:00,62.0,-99.9,29.91,SW,223,2.0,2.0,-999,-99.99,,,-99.99,,2013-03-28 00:12:00,
2013-03-27 17:22:00,62.0,-99.9,29.91,South,171,3.0,4.0,-999,-99.99,,,-99.99,,2013-03-28 00:22:00,
2013-03-27 17:33:00,62.0,-99.9,29.91,SW,235,1.0,2.0,-999,-99.99,,,-99.99,,2013-03-28 00:33:00,
2013-03-27 17:43:00,62.0,-99.9,29.91,WSW,255,2.0,2.0,-999,-99.99,,,-99.99,,2013-03-28 00:43:00,
2013-03-27 17:52:00,61.0,-99.9,29.91,WNW,294,5.0,6.0,-999,-99.99,,,-99.99,,2013-03-28 00:52:00,
2013-03-27 18:02:00,61.0,-99.9,29.91,WNW,290,6.0,7.0,-999,-99.99,,,-99.99,,2013-03-28 01:02:00,
2013-03-27 18:12:00,60.0,-99.9,29.91,WNW,290,6.0,7.0,-999,-99.99,,,-99.99,,2013-03-28 01:12:00,
2013-03-27 18:22:00,60.0,-99.9,29.91,WNW,288,6.0,6.0,-999,-99.99,,,-99.99,,2013-03-28 01:22:00,
2013-03-27 18:32:00,60.0,-99.9,29.91,WNW,296,5.0,7.0,-999,-99.99,,,-99.99,,2013-03-28 01:32:00,
2013-03-27 18:42:00,60.0,-99.9,29.91,WNW,298,5.0,6.0,-999,-99.99,,,-99.99,,2013-03-28 01:42:00,
2013-03-27 18:53:00,59.0,-99.9,29.92,WNW,289,11.0,12.0,-999,-99.99,,,-99.99,,2013-03-28 01:53:00,
2013-03-27 19:03:00,58.0,-99.9,29.93,WNW,289,10.0,12.0,-999,-99.99,,,-99.99,,2013-03-28 02:03:00,
2013-03-27 19:12:00,57.0,-99.9,29.93,WNW,286,9.0,12.0,-999,-99.99,,,-99.99,,2013-03-28 02:12:00,
2013-03-27 19:22:00,56.0,-99.9,29.93,NW,307,6.0,10.0,-999,-99.99,,,-99.99,,2013-03-28 02:22:00,
2013-03-27 19:33:00,57.0,-99.9,29.93,NW,311,5.0,8.0,-999,-99.99,,,-99.99,,2013-03-28 02:33:00,
2013-03-27 19:42:00,57.0,-99.9,29.93,NW,311,5.0,8.0,-999,-99.99,,,-99.99,,2013-03-28 02:42:00,
2013-03-27 19:52:00,57.0,-99.9,29.93,NW,311,5.0,8.0,-999,-99.99,,,-99.99,,2013-03-28 02:52:00,
2013-03-27 20:02:00,55.0,-99.9,29.94,NW,321,5.0,7.0,-999,-99.99,,,-99.99,,2013-03-28 03:02:00,
2013-03-27 20:12:00,54.0,-99.9,29.95,NW,322,5.0,7.0,-999,-99.99,,,-99.99,,2013-03-28 03:12:00,
2013-03-27 20:22:00,54.0,-99.9,29.96,NW,323,2.0,5.0,-999,-99.99,,,-99.99,,2013-03-28 03:22:00,
2013-03-27 20:33:00,52.0,-99.9,29.97,WSW,251,3.0,4.0,-999,-99.99,,,-99.99,,2013-03-28 03:33:00,
2013-03-27 20:43:00,53.0,-99.9,29.96,NW,304,6.0,8.0,-999,-99.99,,,-99.99,,2013-03-28 03:43:00,
2013-03-27 20:53:00,53.0,-99.9,29.96,NW,322,2.0,4.0,-999,-99.99,,,-99.99,,2013-03-28 03:53:00,
2013-03-27 21:03:00,52.0,-99.9,29.96,NW,308,4.0,5.0,-999,-99.99,,,-99.99,,2013-03-28 04:03:00,
2013-03-27 21:12:00,51.0,-99.9,29.97,NW,306,6.0,9.0,-999,-99.99,,,-99.99,,2013-03-28 04:12:00,
2013-03-27 21:23:00,51.0,-99.9,29.97,WNW,293,7.0,9.0,-999,-99.99,,,-99.99,,2013-03-28 04:23:00,
2013-03-27 21:32:00,51.0,-99.9,29.97,WNW,298,5.0,6.0,-999,-99.99,,,-99.99,,2013-03-28 04:32:00,
2013-03-27 21:42:00,51.0,-99.9,29.97,NW,326,3.0,5.0,-999,-99.99,,,-99.99,,2013-03-28 04:42:00,
2013-03-27 21:53:00,51.0,-99.9,29.98,NW,326,3.0,4.0,-999,-99.99,,,-99.99,,2013-03-28 04:53:00,
2013-03-27 22:02:00,51.0,-99.9,29.98,WNW,301,2.0,4.0,-999,-99.99,,,-99.99,,2013-03-28 05:02:00,
2013-03-27 22:12:00,51.0,-99.9,29.98,NW,310,0.0,3.0,-999,-99.99,,,-99.99,,2013-03-28 05:12:00,
2013-03-27 22:22:00,51.0,-99.9,29.98,North,2,2.0,2.0,-999,-99.99,,,-99.99,,2013-03-28 05:22:00,
2013-03-27 22:32:00,51.0,-99.9,29.99,West,264,2.0,2.0,-999,-99.99,,,-99.99,,2013-03-28 05:32:00,
2013-03-27 22:43:00,51.0,-99.9,29.99,West,272,1.0,2.0,-999,-99.99,,,-99.99,,2013-03-28 05:43:00,
2013-03-27 22:52:00,51.0,-99.9,29.99,North,354,-999.0,2.0,-999,-99.99,,,-99.99,,2013-03-28 05:52:00,
2013-03-27 23:02:00,51.0,-99.9,29.99,NW,325,0.0,1.0,-999,-99.99,,,-99.99,,2013-03-28 06:02:00,
2013-03-27 23:13:00,50.0,-99.9,30.00,ESE,121,7.0,10.0,-999,-99.99,,,-99.99,,2013-03-28 06:13:00,
2013-03-27 23:22:00,50.0,-99.9,30.01,SE,137,6.0,8.0,-999,-99.99,,,-99.99,,2013-03-28 06:22:00,
2013-03-27 23:33:00,50.0,-99.9,30.01,WSW,250,3.0,4.0,-999,-99.99,,,-99.99,,2013-03-28 06:33:00,
2013-03-27 23:42:00,50.0,-99.9,30.01,West,278,3.0,4.0,-999,-99.99,,,-99.99,,2013-03-28 06:42:00,
2013-03-27 23:52:00,50.0,-99.9,30.01,West,279,6.0,8.0,-999,-99.99,,,-99.99,,2013-03-28 06:52:00,